Weather observations for the past three days for
Anson County Airport
Imperial (Metric)
Date Time (edt) Wind (mph) Vis. (mi.) Weather Sky Cond. Temperature (ºF) Relative Humidity Wind Chill (°F) Heat Index (°F) Pressure Precipitation (in)
Air Dwpt 6 hour altimeter (in) sea level (mb) 1 hr 3 hr 6 hr
Max. Min.
04 23:35 S 6 10.00 Fair CLR 65.3 46.8 51% 30.01 0.0
04 23:15 S 8 10.00 Fair CLR 66 46.2 49% 30.01 0.0
04 22:55 S 7 10.00 Fair CLR 66.9 45.1 46% 30.01 0.0
04 22:35 S 7 10.00 Fair CLR 66.4 43.5 44% 30 0.0
04 22:15 Calm 10.00 Fair CLR 65.5 42.8 44% 30 0.0
04 21:55 Calm 10.00 Fair CLR 67.5 41.9 40% 29.99 0.0
04 21:35 S 6 10.00 Fair CLR 69.6 41.5 36% 29.98 0.0
04 21:15 Calm 10.00 Fair CLR 69.4 41.2 36% 29.98 0.0
04 20:55 Calm 10.00 Fair CLR 68 40.8 37% 29.97 0.0
04 20:35 Calm 10.00 Fair CLR 70 39.2 33% 29.96 0.0
04 20:15 Calm 10.00 Fair CLR 72 37.4 28% 29.96 0.0
04 19:55 Calm 10.00 Fair CLR 73.8 36.7 82.2 73.8 26% 29.95 0.0
04 19:35 S 5 10.00 Fair CLR 75 34.3 23% 76 29.95 0.0
04 19:15 S 8 10.00 Fair CLR 76.6 32.4 20% 77 29.94 0.0
04 18:55 S 6 10.00 Fair CLR 78.1 33.8 20% 77 29.93 0.0
04 18:35 S 8 10.00 Fair CLR 79.7 32.4 18% 78 29.93 0.0
04 18:15 S 7 10.00 Fair CLR 80.6 32.4 17% 79 29.93 0.0
04 17:55 Calm 10.00 Fair CLR 80.8 31.5 17% 79 29.93 0.0
04 17:35 S 12 10.00 Fair CLR 81.5 32.9 17% 79 29.93 0.0
04 17:15 S 9 10.00 Fair CLR 81.7 31.8 16% 80 29.93 0.0
04 16:55 S 6 10.00 Fair CLR 81.5 32.4 17% 79 29.94 0.0
04 16:35 S 6 G 16 10.00 Fair CLR 81.3 30.2 16% 79 29.95 0.0
04 16:15 S 8 10.00 Fair CLR 81.7 31.5 16% 79 29.95 0.0
04 15:55 S 6 G 16 10.00 Fair CLR 81.9 31.1 16% 80 29.96 0.0
04 15:35 SW 9 10.00 Fair CLR 81.5 31.6 16% 79 29.97 0.0
04 15:15 S 3 10.00 Fair CLR 80.6 30 16% 79 29.97 0.0
04 14:55 S 8 10.00 Fair CLR 80.1 30.6 16% 78 29.98 0.0
04 14:35 S 7 10.00 Fair CLR 78.6 29.8 17% 78 29.99 0.0
04 14:15 W 7 10.00 Fair CLR 78.8 31.5 18% 78 29.99 0.0
04 13:55 W 5 10.00 Fair CLR 78.4 33.8 78.4 51.6 20% 78 30 0.0
04 13:35 Calm 10.00 Fair CLR 77.2 30.9 18% 77 30.01 0.0
04 13:15 S 8 10.00 Fair CLR 76.5 33.1 21% 77 30.01 0.0
04 12:55 Calm 10.00 Fair CLR 75.6 32.5 21% 76 30.03 0.0
04 12:35 W 3 10.00 Fair CLR 74.7 34 23% 30.03 0.0
04 12:15 SW 5 10.00 Fair CLR 75 33.8 22% 76 30.04 0.0
04 11:55 W 6 10.00 Fair CLR 73.6 35.6 25% 30.05 0.0
04 11:35 W 3 10.00 Fair CLR 72.3 38.3 29% 30.05 0.0
04 11:15 W 5 10.00 Fair CLR 71.4 41 33% 30.05 0.0
04 10:55 SW 6 10.00 Fair CLR 69.4 44.2 40% 30.06 0.0
04 10:35 Calm 10.00 Fair CLR 68 43.5 41% 30.06 0.0
04 10:15 Calm 10.00 Fair CLR 66 44.1 45% 30.06 0.0
04 09:55 Calm 10.00 Fair CLR 64.4 46.2 52% 30.06 0.0
04 09:35 Calm 10.00 Fair CLR 62.2 45.9 55% 30.06 0.0
04 09:15 Calm 10.00 Fair CLR 59.9 46.6 62% 30.06 0.0
04 08:55 Calm 10.00 Fair CLR 58.1 47.7 68% 30.05 0.0
04 08:35 Calm 10.00 Fair CLR 56.7 48 73% 30.05 0.0
04 08:15 Calm 10.00 Fair CLR 52.2 47.7 85% 30.05 0.0
04 07:55 Calm 10.00 Fair CLR 52 47.8 54.5 44.8 86% 30.06 0.0
04 07:35 Calm 10.00 Fair CLR 52.7 47.7 83% 30.05 0.0
04 07:15 Calm 10.00 Fair CLR 46 44.4 94% 30.05 0.0
04 06:55 Calm 10.00 Fair CLR 45 43.3 94% 30.05 0.0
04 06:35 Calm 10.00 Fair CLR 45.9 44.6 95% 30.05 0.0
04 06:15 Calm 10.00 Fair CLR 46.8 44.8 93% 30.05 0.0
04 05:55 Calm 10.00 Fair CLR 47.1 45.5 94% 30.05 0.0
04 05:35 Calm 10.00 Fair CLR 50.2 46 86% 30.05 0.0
04 05:15 Calm 10.00 Fair CLR 51.1 46.6 85% 30.05 0.0
04 04:55 Calm 10.00 Fair CLR 51.8 46.6 82% 30.04 0.0
04 04:35 Calm 10.00 Fair CLR 52.5 46.8 81% 30.04 0.0
04 04:15 Calm 10.00 Fair CLR 52.7 46.6 80% 30.04 0.0
04 03:55 Calm 10.00 Fair CLR 52.7 46.6 80% 30.04 0.0
04 03:35 Calm 10.00 Fair CLR 52.7 46.4 79% 30.04 0.0
04 03:15 Calm 10.00 Fair CLR 52.9 45.9 77% 30.04 0.0
04 02:55 Calm 10.00 Fair CLR 53.6 45.1 73% 30.05 0.0
04 02:15 Calm 10.00 Fair CLR 54 43.5 68% 30.04 0.0
04 01:55 Calm 10.00 Fair CLR 46.2 43 64.4 45 89% 30.05 0.0
04 01:35 Calm 10.00 Fair CLR 45.7 42.4 89% 30.06 0.0
04 01:15 Calm 10.00 Fair CLR 47.3 43 85% 30.05 0.0
04 00:55 Calm 10.00 Fair CLR 47.7 43.2 84% 30.06 0.0
04 00:35 Calm 10.00 Fair CLR 48 43.7 85% 30.06 0.0
04 00:15 Calm 10.00 Fair CLR 48.6 43.5 83% 30.06 0.0
03 23:55 Calm 10.00 Fair CLR 51.6 42.1 70% 30.06 0.0
03 23:35 Calm 10.00 Fair CLR 50.9 42.6 73% 30.06 0.0
03 23:15 Calm 10.00 Fair CLR 51.4 41.9 70% 30.06 0.0
03 22:55 Calm 10.00 Fair CLR 50.5 42.8 75% 30.05 0.0
03 22:35 Calm 10.00 Fair CLR 51.1 42.4 72% 30.05 0.0
03 22:15 Calm 10.00 Fair CLR 51.8 42.1 70% 30.05 0.0
03 21:55 Calm 10.00 Fair CLR 53.1 41.9 66% 30.04 0.0
03 21:35 Calm 10.00 Fair CLR 54.1 41.2 62% 30.04 0.0
03 21:15 Calm 10.00 Fair CLR 55 40.6 59% 30.03 0.0
03 20:55 Calm 10.00 Fair CLR 56.8 39.4 52% 30.02 0.0
03 20:35 Calm 10.00 Fair CLR 58.3 39.2 49% 30.02 0.0
03 20:15 Calm 10.00 Fair CLR 61.9 37.6 41% 30.01 0.0
03 19:55 Calm 10.00 Fair CLR 64.9 36.1 70.9 64.9 35% 30.01 0.0
03 19:35 Calm 10.00 Fair CLR 66.4 35.8 32% 30.01 0.0
03 19:15 Calm 10.00 Fair CLR 68 33.4 28% 30.01 0.0
03 18:55 Calm 10.00 Fair CLR 69.1 33.8 27% 30.01 0.0
03 18:35 W 6 10.00 Fair CLR 69.4 32.4 25% 30.01 0.0
03 18:15 SW 3 10.00 Fair CLR 69.6 32.7 26% 30.02 0.0
03 17:55 W 3 10.00 Fair CLR 69.8 32.2 25% 30.01 0.0
03 17:35 SW 5 10.00 Fair CLR 70 32.9 25% 30.02 0.0
03 17:15 SW 3 10.00 Fair CLR 70 31.5 24% 30.02 0.0
03 16:55 W 9 10.00 Fair CLR 70.2 32.5 25% 30.02 0.0
03 16:35 W 8 10.00 Fair CLR 69.8 32.2 25% 30.03 0.0
03 16:15 Calm 10.00 Fair CLR 69.1 32 25% 30.03 0.0
03 15:55 W 7 10.00 Fair CLR 69.1 32 25% 30.04 0.0
03 15:35 W 7 10.00 Fair CLR 69.1 31.8 25% 30.05 0.0
03 15:15 W 7 10.00 Fair CLR 68.2 32.2 26% 30.06 0.0
03 14:55 W 7 10.00 Fair CLR 68.5 32.7 27% 30.07 0.0
03 14:35 W 8 10.00 Fair CLR 66.9 31.8 27% 30.08 0.0
03 14:15 W 9 10.00 Fair CLR 67.1 31.3 26% 30.08 0.0
03 13:56 SW 7 10.00 Fair CLR 66 32.4 66.9 43.2 29% 30.09 0.0
03 13:35 SW 7 10.00 Fair CLR 66.4 32.2 28% 30.1 0.0
03 13:15 Calm 10.00 Fair CLR 65.5 32.9 30% 30.11 0.0
03 12:55 W 5 10.00 Fair CLR 64.4 32.7 31% 30.12 0.0
03 12:35 Calm 10.00 Fair CLR 62.2 30.4 30% 30.12 0.0
03 12:15 W 6 10.00 Fair CLR 63 30.9 30% 30.13 0.0
03 11:55 W 13 10.00 Fair CLR 62.4 31.6 32% 30.13 0.0
03 11:35 NW 7 10.00 Fair CLR 61.2 30.9 32% 30.14 0.0
03 11:15 N 12 G 16 10.00 Fair CLR 61 31.8 33% 30.14 0.0
03 10:55 NW 8 10.00 Fair CLR 59.4 32.4 36% 30.14 0.0
03 10:35 NW 12 10.00 Fair CLR 59 30 33% 30.14 0.0
03 10:15 NW 12 G 16 10.00 Fair CLR 57.9 32.7 39% 30.14 0.0
03 09:55 NW 5 10.00 Fair CLR 56.1 37.8 50% 30.13 0.0
03 09:35 N 7 10.00 Fair CLR 54.5 38.5 55% 30.13 0.0
03 09:15 N 6 10.00 Fair CLR 51.8 39.4 63% 30.13 0.0
03 08:55 NW 5 10.00 Fair CLR 50 39.9 68% 49 30.14 0.0
03 08:35 NW 3 10.00 Fair CLR 47.7 39.4 73% 30.14 0.0
03 08:15 Calm 10.00 Fair CLR 45.9 39.9 80% 30.13 0.0
03 07:55 Calm 10.00 Fair CLR 43 41.9 43 35.8 96% 30.13 0.0
03 07:35 Calm 7.00 Fair CLR 39.7 38.8 97% 30.12 0.0
03 07:15 Calm 7.00 Fair CLR 37.4 36.5 97% 30.12 0.0
03 06:55 Calm 7.00 Fair CLR 35.8 34.9 97% 30.1 0.0
03 06:35 Calm 7.00 Fair CLR 36.1 35.2 97% 30.09 0.0
03 06:15 Calm 5.00 Fair CLR 36.1 35.2 97% 30.08 0.0
03 05:55 Calm 5.00 Fair CLR 36.7 35.8 97% 30.07 0.0
03 05:35 Calm 5.00 Fair CLR 37 36.1 97% 30.07 0.0
03 05:15 Calm 7.00 Fair CLR 37.6 36.7 97% 30.07 0.0
03 04:55 Calm 5.00 Fair CLR 36.7 35.8 97% 30.06 0.0
03 04:35 Calm 7.00 Fair CLR 36.1 35.2 97% 30.05 0.0
03 04:15 Calm 5.00 Fair CLR 37.4 36.5 97% 30.05 0.0
03 03:55 Calm 10.00 Fair CLR 38.3 37.4 97% 30.04 0.0
03 03:35 Calm 10.00 Fair CLR 38.3 37.4 97% 30.03 0.0
03 03:15 Calm 10.00 Fair CLR 38.1 37.2 97% 30.03 0.0
03 02:55 Calm 1.75 Sky Obscured VV007 38.8 37.9 97% 30.02 0.0
03 02:35 Calm 1.00 Sky Obscured VV007 40.3 39.4 97% 30.01 0.0
03 02:15 Calm 1.50 Sky Obscured VV007 40.3 39.2 96% 30.01 0.0
03 01:55 Calm 0.75 Sky Obscured VV005 41 39.9 57.4 41 96% 30.01 0.0
03 01:35 Calm 2.00 Fair CLR 41.9 41 97% 30.01 0.0
03 01:15 Calm 1.25 Sky Obscured VV007 41.9 41 97% 30.01 0.0
03 00:55 Calm 10.00 Fair CLR 43.3 42.4 97% 30.01 0.0
03 00:35 Calm 7.00 Fair CLR 43.3 42.4 97% 30 0.0
03 00:15 Calm 10.00 Fair CLR 43.5 42.6 97% 30.01 0.0
02 23:55 Calm 10.00 Fair CLR 44.2 43.3 97% 30 0.0
02 23:35 Calm 7.00 Fair CLR 44.8 43.9 97% 30 0.0
02 23:15 Calm 7.00 Fair CLR 44.4 43.5 97% 29.99 0.0
02 22:55 Calm 10.00 Fair CLR 45.5 44.6 97% 29.98 0.0
02 22:35 Calm 10.00 Fair CLR 46.4 45.3 96% 29.98 0.0
02 22:15 Calm 10.00 Fair CLR 47.3 46.4 97% 29.97 0.0
02 21:55 Calm 10.00 Fair CLR 46.6 45.7 97% 29.96 0.0
02 21:35 Calm 10.00 Fair CLR 47.3 46.2 96% 29.96 0.0
02 21:15 Calm 10.00 Fair CLR 48.6 46.4 92% 29.95 0.0
02 20:55 Calm 10.00 Fair CLR 50.2 46.8 88% 29.94 0.0
02 20:35 Calm 10.00 Fair CLR 51.8 46.8 83% 29.93 0.0
02 20:15 Calm 10.00 Fair CLR 53.8 46.9 78% 29.91 0.0
02 19:55 Calm 10.00 Fair CLR 57.4 42.6 60.3 57.4 58% 29.91 0.0
02 19:35 NW 3 10.00 Fair CLR 58.3 42.3 55% 29.9 0.0
02 19:15 Calm 10.00 Fair CLR 58.3 43.3 58% 29.89 0.0
02 18:55 Calm 10.00 Fair CLR 58.3 41.7 54% 29.89 0.0
02 18:35 N 3 10.00 Partly Cloudy SCT090 58.6 40.5 51% 29.89 0.0
02 18:15 N 6 10.00 Mostly Cloudy SCT065 BKN085 59.2 39.6 48% 29.89 0.0
02 17:55 N 6 10.00 Mostly Cloudy BKN065 BKN085 BKN110 59 41 51% 29.89 0.0
02 17:35 N 6 10.00 Mostly Cloudy SCT065 BKN110 59.2 41 51% 29.88 0.0
02 17:15 N 6 10.00 Mostly Cloudy SCT065 BKN110 59.7 40.5 49% 29.88 0.0
02 16:55 N 6 10.00 Overcast OVC110 59.9 39.9 48% 29.88 0.0
02 16:35 N 5 10.00 Mostly Cloudy BKN110 60.1 40.6 49% 29.88 0.0
02 16:15 NW 7 10.00 Mostly Cloudy SCT060 SCT080 BKN100 59.9 42.1 52% 29.89 0.0
02 15:55 NW 7 10.00 Overcast SCT033 OVC060 59 43.9 57% 29.9 0.0
02 15:35 NW 6 10.00 Overcast SCT033 OVC050 59.5 43.5 56% 29.89 0.0
02 15:15 Calm 10.00 Overcast SCT029 SCT037 OVC050 59.7 45.7 60% 29.9 0.0
02 14:55 E 3 10.00 Overcast BKN029 BKN038 OVC050 58.6 46.2 64% 29.91 0.0
02 14:35 NE 3 10.00 Mostly Cloudy SCT029 BKN050 58.8 46.4 64% 29.91 0.0
02 14:15 NE 3 10.00 Mostly Cloudy BKN050 58.6 46.8 65% 29.91 0.0
02 13:55 N 7 10.00 Partly Cloudy SCT046 SCT120 57.4 47.7 57.6 52.7 70% 29.91 0.0 0.09
02 13:35 N 5 10.00 Partly Cloudy SCT046 SCT085 SCT120 56.3 49.8 79% 29.91 0.0
02 13:15 N 3 10.00 Partly Cloudy SCT044 SCT085 55.8 50.2 82% 29.92 0.0
02 12:55 N 3 10.00 Partly Cloudy SCT075 54.7 50.5 86% 29.93 0.0 0.01
02 12:35 N 5 10.00 Partly Cloudy SCT085 54 49.5 85% 29.93 0.0
02 12:15 N 6 10.00 Partly Cloudy SCT095 53.4 48.7 84% 29.95 0.0
02 11:55 N 6 10.00 Partly Cloudy SCT075 52.7 48.4 85% 29.93 0.0 0.01
02 11:35 N 8 10.00 Mostly Cloudy BKN075 52.7 48 84% 29.95 0.0 0.01
02 11:15 N 6 10.00 Mostly Cloudy SCT041 BKN075 53.4 49.1 85% 29.96 0.0
02 10:55 N 7 10.00 Mostly Cloudy BKN043 BKN075 54 50.4 88% 29.95 0.0 0.07
02 10:35 N 7 10.00 Overcast OVC044 54 51.1 90% 29.95 0.0
02 10:15 N 3 10.00 Overcast SCT037 OVC044 53.6 51.6 93% 29.94 0.0
02 09:55 NE 3 10.00 Overcast OVC036 53.2 51.1 92% 29.95 0.0 0.03
02 09:35 Calm 7.00 Overcast BKN029 BKN036 OVC044 53.2 51.1 92% 29.95 0.0 0.02
02 09:15 N 5 7.00 Overcast OVC027 53.2 51.1 92% 29.94 0.0
02 08:55 N 6 10.00 Overcast OVC023 53.6 51.6 93% 29.93 0.0 0.04
02 08:35 N 6 7.00 Mostly Cloudy SCT023 SCT033 BKN080 53.8 52.7 96% 29.91 0.0 0.03
02 08:15 N 6 5.00 Mostly Cloudy BKN080 53.6 52.5 96% 29.9 0.0 0.02
02 07:55 N 5 5.00 Mostly Cloudy BKN080 53.2 52.2 53.8 53.1 96% 29.89 0.0 0.07 0.12
02 07:35 NE 5 5.00 Overcast SCT060 OVC070 53.2 52.2 96% 29.88 0.0 0.06
02 07:15 Calm 4.00 Overcast OVC070 53.2 52.2 96% 29.89 0.0 0.04
02 06:55 Calm 3.00 Overcast OVC070 53.2 52.2 96% 29.9 0.0 0.04
02 06:35 Calm 5.00 Partly Cloudy SCT070 53.2 52.2 96% 29.9 0.0 0.02
02 06:15 Calm 7.00 Partly Cloudy SCT075 53.2 52.2 96% 29.9 0.0 0.01
02 05:55 Calm 10.00 Mostly Cloudy BKN075 53.2 52.2 96% 29.91 0.0 0.01
02 05:35 N 5 7.00 Overcast OVC075 53.2 52.2 96% 29.91 0.0
02 05:15 N 5 10.00 Overcast OVC075 53.4 52.3 96% 29.91 0.0
02 04:55 Calm 10.00 Overcast OVC075 53.6 52.5 96% 29.9 0.0
02 04:35 Calm 10.00 Overcast OVC090 53.6 52 94% 29.9 0.0
02 04:15 Calm 10.00 Mostly Cloudy BKN100 BKN120 53.4 52 95% 29.89 0.0
02 03:55 Calm 10.00 Mostly Cloudy BKN110 53.1 52 96% 29.89 0.0
02 03:35 Calm 10.00 Mostly Cloudy BKN110 53.4 51.8 94% 29.88 0.0
02 03:15 Calm 10.00 Mostly Cloudy BKN110 53.6 51.8 94% 29.88 0.0
02 02:55 Calm 10.00 Mostly Cloudy BKN110 53.1 51.8 96% 29.88 0.0
02 02:35 Calm 10.00 Fair CLR 53.2 51.8 95% 29.88 0.0
02 02:15 Calm 10.00 Fair CLR 53.6 51.8 94% 29.9 0.0
02 01:55 Calm 10.00 Fair CLR 53.1 51.8 59.9 53.1 96% 29.9 0.0
02 01:35 Calm 10.00 Fair CLR 53.6 51.8 94% 29.9 0.0
02 01:15 Calm 10.00 Fair CLR 53.8 51.8 93% 29.92 0.0
02 00:55 Calm 10.00 Fair CLR 53.8 51.4 92% 29.91 0.0
02 00:35 Calm 10.00 Fair CLR 54 51.8 92% 29.91 0.0
02 00:15 Calm 10.00 Fair CLR 53.8 51.4 92% 29.92 0.0
Date Time (edt) Wind (mph) Vis. (mi.) Weather Sky Cond. Air Dwpt Max. Min. Relative Humidity Wind Chill (°F) Heat Index (°F) altimeter (in) sea level (mb) 1 hr 3 hr 6 hr
6 hour
Temperature (ºF) Pressure Precipitation (in)